createdAt,value
2023-04-27T00:00:37.751Z,91.5469
2023-04-27T00:01:38.293Z,91.5732
2023-04-27T00:02:39.575Z,91.9317
2023-04-27T00:03:40.003Z,92.0190
2023-04-27T00:04:40.303Z,92.1342
2023-04-27T00:05:40.354Z,92.1481
2023-04-27T00:06:40.332Z,92.0704
2023-04-27T00:07:40.972Z,92.0426
2023-04-27T00:08:41.528Z,91.7952
2023-04-27T00:09:41.938Z,91.8249
2023-04-27T00:10:42.611Z,92.0692
2023-04-27T00:11:43.233Z,92.2970
2023-04-27T00:12:43.838Z,92.5154
2023-04-27T00:13:44.376Z,92.7090
2023-04-27T00:14:44.933Z,92.9364
2023-04-27T00:15:45.485Z,93.1026
2023-04-27T00:16:46.074Z,93.1674
2023-04-27T00:17:46.872Z,93.2143
2023-04-27T00:18:47.651Z,93.2553
2023-04-27T00:19:47.629Z,93.2594
2023-04-27T00:20:48.087Z,93.2506
2023-04-27T00:21:48.863Z,93.2805
2023-04-27T00:22:49.389Z,93.3304
2023-04-27T00:23:50.020Z,93.3043
2023-04-27T00:24:50.691Z,93.3365
2023-04-27T00:25:51.413Z,93.3530
2023-04-27T00:26:52.058Z,93.4021
2023-04-27T00:27:52.665Z,93.5043
2023-04-27T00:28:53.083Z,93.5944
2023-04-27T00:29:53.689Z,93.6500
2023-04-27T00:30:54.176Z,93.6922
2023-04-27T00:31:54.956Z,93.7384
2023-04-27T00:32:55.836Z,93.7388
2023-04-27T00:33:56.415Z,93.7280
2023-04-27T00:34:57.063Z,93.7418
2023-04-27T00:35:57.782Z,93.7110
2023-04-27T00:36:58.298Z,93.5743
2023-04-27T00:37:58.893Z,93.4439
2023-04-27T00:38:59.287Z,93.3697
2023-04-27T00:39:59.820Z,93.3634
2023-04-27T00:41:00.467Z,93.2929
2023-04-27T00:42:00.854Z,93.2456
2023-04-27T00:43:01.652Z,93.1841
2023-04-27T00:44:02.251Z,93.1186
2023-04-27T00:45:02.675Z,93.0133
2023-04-27T00:46:03.831Z,92.9513
2023-04-27T00:47:04.358Z,92.9851
2023-04-27T00:48:05.347Z,93.0514
2023-04-27T00:49:05.906Z,93.0744
2023-04-27T00:50:07.178Z,93.0914
2023-04-27T00:51:07.897Z,93.1279
2023-04-27T00:52:08.735Z,93.0871
2023-04-27T00:53:09.231Z,93.0670
2023-04-27T00:54:09.852Z,92.9991
2023-04-27T00:55:10.566Z,93.1547
2023-04-27T00:56:10.986Z,93.1435
2023-04-27T00:57:11.574Z,93.1982
2023-04-27T00:58:12.033Z,93.1671
2023-04-27T00:59:12.965Z,93.0931
2023-04-27T01:00:13.772Z,93.0346
2023-04-27T01:01:14.431Z,92.9837
2023-04-27T01:04:16.368Z,93.1217
2023-04-27T01:05:16.502Z,93.1675
2023-04-27T01:06:17.028Z,93.3034
2023-04-27T01:07:17.649Z,93.3154
2023-04-27T01:08:18.835Z,93.4314
2023-04-27T01:09:19.468Z,93.5498
2023-04-27T01:10:19.545Z,93.5807
2023-04-27T01:11:20.194Z,93.6392
2023-04-27T01:12:20.737Z,93.7219
2023-04-27T01:13:21.386Z,93.8007
2023-04-27T01:14:22.116Z,93.8431
2023-04-27T01:15:22.540Z,93.8751
2023-04-27T01:16:23.191Z,93.9280
2023-04-27T01:17:23.935Z,93.9623
2023-04-27T01:18:24.861Z,93.9759
2023-04-27T01:19:25.789Z,94.0532
2023-04-27T01:20:26.304Z,94.1133
2023-04-27T01:21:27.280Z,94.1119
2023-04-27T01:22:27.895Z,94.1057
2023-04-27T01:23:28.331Z,94.1071
2023-04-27T01:24:29.035Z,94.0631
2023-04-27T01:25:29.527Z,94.0363
2023-04-27T01:26:30.169Z,94.0200
2023-04-27T01:27:30.941Z,93.9953
2023-04-27T01:28:31.361Z,93.9895
2023-04-27T01:29:32.151Z,93.9399
2023-04-27T01:30:33.270Z,93.8764
2023-04-27T01:31:33.416Z,93.8335
2023-04-27T01:32:33.758Z,93.7847
2023-04-27T01:33:34.519Z,93.7571
2023-04-27T01:34:35.069Z,93.7044
2023-04-27T01:35:35.795Z,93.6394
2023-04-27T01:36:36.470Z,93.5602
2023-04-27T01:37:37.397Z,93.2983
2023-04-27T01:38:38.020Z,93.1449
2023-04-27T01:39:38.462Z,93.2001
2023-04-27T01:40:39.266Z,93.2948
2023-04-27T01:41:39.731Z,93.4168
2023-04-27T01:42:40.264Z,93.5802
2023-04-27T01:43:40.931Z,93.7537
2023-04-27T01:44:41.402Z,93.9055
2023-04-27T01:45:42.043Z,94.1174
2023-04-27T01:46:43.129Z,94.2194
2023-04-27T01:47:43.808Z,94.3304
2023-04-27T01:48:44.741Z,94.4054
2023-04-27T01:49:45.953Z,94.4579
2023-04-27T01:50:46.353Z,94.5238
2023-04-27T01:51:46.897Z,94.5836
2023-04-27T01:52:47.427Z,94.6512
2023-04-27T01:53:48.181Z,94.7600
2023-04-27T01:54:48.659Z,94.8167
2023-04-27T01:55:49.189Z,94.8509
2023-04-27T01:56:50.137Z,94.8752
2023-04-27T01:57:50.873Z,94.9499
2023-04-27T01:58:51.267Z,95.0276
2023-04-27T01:59:51.911Z,95.0603
2023-04-27T02:00:52.193Z,95.0949
2023-04-27T02:01:53.073Z,95.1314
2023-04-27T02:02:53.519Z,95.1629
2023-04-27T02:03:53.567Z,95.1639
2023-04-27T02:04:54.083Z,95.2226
2023-04-27T02:05:54.499Z,95.2674
2023-04-27T02:06:55.429Z,95.3153
2023-04-27T02:07:56.270Z,95.3897
2023-04-27T02:08:56.824Z,95.4267
2023-04-27T02:09:57.404Z,95.5132
2023-04-27T02:10:58.363Z,95.5731
2023-04-27T02:11:59.113Z,95.6125
2023-04-27T02:12:59.726Z,95.6516
2023-04-27T02:14:00.552Z,95.6824
2023-04-27T02:15:01.360Z,95.7121
2023-04-27T02:16:02.180Z,95.7651
2023-04-27T02:17:03.299Z,95.7916
2023-04-27T02:18:04.399Z,95.8460
2023-04-27T02:19:05.300Z,95.8802
2023-04-27T02:20:06.122Z,95.8574
2023-04-27T02:21:06.892Z,95.9038
2023-04-27T02:22:07.597Z,95.9738
2023-04-27T02:23:08.087Z,96.0553
2023-04-27T02:24:08.873Z,96.1554
2023-04-27T02:25:10.289Z,96.2323
2023-04-27T02:26:11.156Z,96.2837
2023-04-27T02:28:11.568Z,96.3278
2023-04-27T02:29:12.619Z,96.3498
2023-04-27T02:30:13.182Z,96.3809
2023-04-27T02:31:14.281Z,96.3934
2023-04-27T02:32:15.345Z,96.4170
2023-04-27T02:33:16.278Z,96.4370
2023-04-27T02:34:16.840Z,96.4560
2023-04-27T02:35:17.975Z,96.4913
2023-04-27T02:36:18.723Z,96.5369
2023-04-27T02:37:19.185Z,96.5689
2023-04-27T02:38:19.993Z,96.5967
2023-04-27T02:39:20.548Z,96.6075
2023-04-27T02:40:21.185Z,96.6109
2023-04-27T02:41:21.937Z,96.5970
2023-04-27T02:42:22.415Z,96.5798
2023-04-27T02:43:23.247Z,96.5737
2023-04-27T02:44:23.901Z,96.6042
2023-04-27T02:45:24.577Z,96.6127
2023-04-27T02:46:25.554Z,96.6056
2023-04-27T02:47:26.436Z,96.5887
2023-04-27T02:48:27.260Z,96.5701
2023-04-27T02:49:27.694Z,96.5529
2023-04-27T02:50:27.900Z,96.5307
2023-04-27T02:51:28.732Z,96.5190
2023-04-27T02:52:29.302Z,96.5353
2023-04-27T02:53:30.333Z,96.5169
2023-04-27T02:54:30.929Z,96.5181
2023-04-27T02:55:31.538Z,96.5222
2023-04-27T02:56:32.396Z,96.5547
2023-04-27T02:57:33.133Z,96.5806
2023-04-27T02:58:33.603Z,96.5926
2023-04-27T02:59:34.763Z,96.6031
2023-04-27T03:00:35.573Z,96.6346
2023-04-27T03:01:36.545Z,96.6421
2023-04-27T03:02:36.595Z,96.6461
2023-04-27T03:03:37.594Z,96.6684
2023-04-27T03:04:38.695Z,96.6835
2023-04-27T03:06:38.797Z,96.6994
2023-04-27T03:07:39.451Z,96.6506
2023-04-27T03:08:40.159Z,96.5929
2023-04-27T03:09:40.865Z,96.5408
2023-04-27T03:10:41.513Z,96.4487
2023-04-27T03:11:42.092Z,96.4972
2023-04-27T03:12:42.814Z,96.5380
2023-04-27T03:13:43.510Z,96.5269
2023-04-27T03:14:44.015Z,96.5376
2023-04-27T03:15:44.034Z,96.5515
2023-04-27T03:16:44.696Z,96.5368
2023-04-27T03:17:45.545Z,96.5451
2023-04-27T03:18:46.245Z,96.5639
2023-04-27T03:19:47.440Z,96.5738
2023-04-27T03:20:47.952Z,96.5600
2023-04-27T03:21:48.727Z,96.5541
2023-04-27T03:22:49.283Z,96.5959
2023-04-27T03:23:49.946Z,96.6428
2023-04-27T03:24:50.633Z,96.6778
2023-04-27T03:25:51.183Z,96.6852
2023-04-27T03:26:51.834Z,96.6812
2023-04-27T03:27:52.287Z,96.6725
2023-04-27T03:28:54.724Z,96.6845
2023-04-27T03:29:55.437Z,96.7121
2023-04-27T03:30:55.836Z,96.7306
2023-04-27T03:31:56.896Z,96.7043
2023-04-27T03:32:57.453Z,96.5162
2023-04-27T03:33:57.873Z,96.3486
2023-04-27T03:34:58.536Z,96.2869
2023-04-27T03:35:59.114Z,96.3263
2023-04-27T03:36:59.571Z,96.3433
2023-04-27T03:38:00.215Z,96.4402
2023-04-27T03:39:00.709Z,96.5087
2023-04-27T03:40:01.783Z,96.4335
2023-04-27T03:41:02.470Z,96.4455
2023-04-27T03:42:02.909Z,96.5488
2023-04-27T03:43:03.824Z,96.6240
2023-04-27T03:44:04.462Z,96.6587
2023-04-27T03:45:04.944Z,96.6855
2023-04-27T03:46:06.144Z,96.6951
2023-04-27T03:47:06.901Z,96.7550
2023-04-27T03:48:08.141Z,96.8009
2023-04-27T03:49:08.757Z,96.8391
2023-04-27T03:50:08.873Z,96.9071
2023-04-27T03:51:09.558Z,96.9288
2023-04-27T03:52:10.268Z,96.9894
2023-04-27T03:53:10.988Z,97.0203
2023-04-27T03:54:11.837Z,97.0405
2023-04-27T03:55:12.579Z,97.0448
2023-04-27T03:56:13.167Z,97.0122
2023-04-27T03:57:13.855Z,97.0043
2023-04-27T03:58:14.680Z,97.0004
2023-04-27T03:59:15.487Z,96.9988
2023-04-27T04:00:15.140Z,97.0173
2023-04-27T04:01:16.142Z,97.0209
2023-04-27T04:02:17.130Z,96.9998
2023-04-27T04:03:18.384Z,96.9951
2023-04-27T04:04:18.648Z,96.9933
2023-04-27T04:05:19.313Z,96.9892
2023-04-27T04:12:29.156Z,97.0092
2023-04-27T04:13:30.177Z,97.0071
2023-04-27T04:19:37.782Z,96.9869
2023-04-27T04:20:38.542Z,96.9572
2023-04-27T04:21:39.570Z,96.9254
2023-04-27T04:22:40.090Z,96.8981
2023-04-27T04:31:54.283Z,96.8860
2023-04-27T04:32:55.138Z,96.9160
2023-04-27T04:33:55.845Z,96.9684
2023-04-27T04:34:56.347Z,96.9709
2023-04-27T04:35:56.843Z,96.9486
2023-04-27T04:36:57.881Z,96.9908
2023-04-27T04:38:00.238Z,97.0400
2023-04-27T04:39:02.177Z,97.0586
2023-04-27T04:40:03.446Z,97.0457
2023-04-27T04:41:04.654Z,97.0385
2023-04-27T04:42:05.476Z,97.0338
2023-04-27T04:43:05.736Z,97.0036
2023-04-27T04:44:06.246Z,97.0017
2023-04-27T04:45:08.530Z,97.0302
2023-04-27T04:46:10.767Z,97.0310
2023-04-27T04:47:12.114Z,97.0338
2023-04-27T04:48:13.149Z,97.0137
2023-04-27T04:49:14.236Z,96.9833
2023-04-27T04:50:15.515Z,97.0015
2023-04-27T04:51:14.483Z,97.0279
2023-04-27T04:52:25.982Z,97.0487
2023-04-27T04:53:26.895Z,97.0758
2023-04-27T04:54:28.080Z,97.0588
2023-04-27T04:55:28.512Z,96.8675
2023-04-27T04:56:29.515Z,96.7282
2023-04-27T04:57:31.797Z,96.6047
2023-04-27T04:58:33.135Z,96.6395
2023-04-27T04:59:33.333Z,96.6696
2023-04-27T05:00:33.990Z,96.7014
2023-04-27T05:01:34.927Z,96.6908
2023-04-27T05:02:36.176Z,96.6498
2023-04-27T05:03:37.799Z,96.6248
2023-04-27T05:04:38.622Z,96.6112
2023-04-27T05:06:38.929Z,96.6268
2023-04-27T05:07:39.682Z,96.6473
2023-04-27T05:08:40.019Z,96.6421
2023-04-27T05:09:40.680Z,96.6737
2023-04-27T05:10:41.822Z,96.6367
2023-04-27T05:11:42.678Z,96.6155
2023-04-27T05:12:43.712Z,96.6024
2023-04-27T05:13:44.591Z,96.3702
2023-04-27T05:14:45.046Z,95.9655
2023-04-27T05:15:45.566Z,95.7939
2023-04-27T05:21:54.435Z,95.9149
2023-04-27T05:22:56.120Z,96.0308
2023-04-27T05:23:56.677Z,96.0643
2023-04-27T05:25:09.325Z,96.1074
2023-04-27T05:26:10.334Z,96.1515
2023-04-27T05:27:10.373Z,96.1769
2023-04-27T05:28:11.890Z,96.1996
2023-04-27T05:29:12.255Z,96.1418
2023-04-27T05:30:13.029Z,96.1366
2023-04-27T05:31:14.424Z,96.1846
2023-04-27T05:32:15.791Z,96.1999
2023-04-27T05:33:16.575Z,96.2586
2023-04-27T05:34:17.902Z,96.3305
2023-04-27T05:35:18.244Z,96.3731
2023-04-27T05:36:19.245Z,96.3249
2023-04-27T05:37:20.561Z,96.3164
2023-04-27T05:38:21.317Z,96.3740
2023-04-27T05:39:22.166Z,96.3835
2023-04-27T05:40:22.976Z,96.3809
2023-04-27T05:41:24.182Z,96.3879
2023-04-27T05:44:26.383Z,96.3750
2023-04-27T05:45:28.380Z,96.3818
2023-04-27T05:46:32.867Z,96.4081
2023-04-27T05:48:29.932Z,96.5365
2023-04-27T05:49:30.689Z,96.5820
2023-04-27T05:50:31.187Z,96.5970
2023-04-27T05:56:38.911Z,96.4728
2023-04-27T05:57:39.749Z,96.5125
2023-04-27T05:58:40.099Z,96.5563
2023-04-27T05:59:40.634Z,96.5956
2023-04-27T06:00:41.452Z,96.5766
2023-04-27T06:01:42.306Z,96.5217
2023-04-27T06:02:42.626Z,96.4860
2023-04-27T06:03:42.826Z,96.4118
2023-04-27T06:04:43.229Z,96.3773
2023-04-27T06:05:43.255Z,96.3955
2023-04-27T06:06:44.624Z,96.3815
2023-04-27T06:07:45.390Z,96.3331
2023-04-27T06:08:46.345Z,96.2539
2023-04-27T06:09:47.565Z,96.1931
2023-04-27T06:10:48.114Z,96.1504
2023-04-27T06:11:48.976Z,96.1708
2023-04-27T06:12:49.572Z,96.2267
2023-04-27T06:13:50.224Z,96.2924
2023-04-27T06:14:51.312Z,96.2925
2023-04-27T06:15:52.029Z,96.3178
2023-04-27T06:16:52.832Z,96.3596
2023-04-27T06:17:53.777Z,96.3088
2023-04-27T06:18:54.405Z,96.2334
2023-04-27T06:19:55.118Z,96.1556
2023-04-27T06:20:56.097Z,96.0669
2023-04-27T06:21:57.157Z,96.0009
2023-04-27T06:22:57.745Z,95.8593
2023-04-27T06:23:58.696Z,95.6682
2023-04-27T06:24:59.466Z,95.5952
2023-04-27T06:26:01.138Z,95.4591
2023-04-27T06:27:00.330Z,95.3508
2023-04-27T06:28:01.016Z,94.6063
2023-04-27T06:29:01.848Z,93.3873
2023-04-27T06:30:02.358Z,93.1373
2023-04-27T06:31:03.417Z,93.2359
2023-04-27T06:32:04.794Z,92.7054
2023-04-27T06:33:05.702Z,92.6725
2023-04-27T06:34:06.402Z,93.3471
2023-04-27T06:35:07.147Z,93.6241
2023-04-27T06:36:08.149Z,93.9935
2023-04-27T06:37:09.075Z,94.3166
2023-04-27T06:38:10.002Z,94.2271
2023-04-27T06:39:10.482Z,93.8207
2023-04-27T06:40:11.429Z,93.6242
2023-04-27T06:41:12.057Z,93.7961
2023-04-27T06:42:12.796Z,93.5958
2023-04-27T06:43:13.602Z,93.2856
2023-04-27T06:44:14.837Z,92.8556
2023-04-27T06:45:15.489Z,92.6482
2023-04-27T06:46:16.392Z,92.5355
2023-04-27T06:47:17.076Z,92.5432
2023-04-27T06:48:17.913Z,92.4579
2023-04-27T06:49:18.645Z,92.1906
2023-04-27T06:50:19.083Z,92.2729
2023-04-27T06:51:19.698Z,91.8892
2023-04-27T06:52:20.397Z,92.0861
2023-04-27T06:53:20.741Z,92.5837
2023-04-27T06:54:21.424Z,92.4094
2023-04-27T06:55:21.912Z,92.4381
2023-04-27T06:56:22.155Z,92.7779
2023-04-27T06:57:22.812Z,92.8475
2023-04-27T06:58:23.555Z,92.7201
2023-04-27T06:59:24.893Z,92.2298
2023-04-27T07:00:25.682Z,91.7537
2023-04-27T07:01:26.537Z,91.4788
2023-04-27T07:02:28.191Z,91.3188
2023-04-27T07:03:28.248Z,91.4249
2023-04-27T07:04:29.253Z,92.0381
2023-04-27T07:05:29.119Z,92.4464
2023-04-27T07:06:29.675Z,92.6437
2023-04-27T07:07:30.365Z,92.7416
2023-04-27T07:08:30.875Z,92.8111
2023-04-27T07:09:31.622Z,92.3581
2023-04-27T07:10:32.178Z,92.4276
2023-04-27T07:11:32.960Z,92.4641
2023-04-27T07:12:33.374Z,92.1242
2023-04-27T07:13:34.012Z,92.0635
2023-04-27T07:14:34.660Z,92.2457
2023-04-27T07:15:35.164Z,92.3218
2023-04-27T07:16:36.065Z,91.9544
2023-04-27T07:17:37.151Z,91.6301
2023-04-27T07:18:37.830Z,91.3383
2023-04-27T07:19:38.980Z,90.5670
2023-04-27T07:20:39.761Z,90.9094
2023-04-27T07:21:40.462Z,90.9641
2023-04-27T07:22:41.124Z,90.5367
2023-04-27T07:23:41.619Z,89.9777
2023-04-27T07:24:42.177Z,90.2563
2023-04-27T07:25:42.876Z,90.0517
2023-04-27T07:26:43.409Z,89.3335
2023-04-27T07:27:44.105Z,89.2718
2023-04-27T07:28:44.732Z,89.6480
2023-04-27T07:29:45.197Z,90.0906
2023-04-27T07:30:45.884Z,90.7217
2023-04-27T07:31:46.818Z,90.5386
2023-04-27T07:32:47.729Z,88.9480
2023-04-27T07:33:48.517Z,89.1659
2023-04-27T07:34:53.703Z,89.3811
2023-04-27T07:35:50.310Z,88.8450
2023-04-27T07:36:51.066Z,89.0669
2023-04-27T07:37:51.805Z,89.7442
2023-04-27T07:38:52.285Z,87.9767
2023-04-27T07:39:53.019Z,87.4557
2023-04-27T07:40:53.254Z,87.3625
2023-04-27T07:41:53.884Z,86.9069
2023-04-27T07:42:54.598Z,84.8158
2023-04-27T07:43:55.047Z,85.1726
2023-04-27T07:44:55.809Z,85.4521
2023-04-27T07:45:56.669Z,85.9612
2023-04-27T07:46:57.756Z,86.0674
2023-04-27T07:47:58.994Z,86.2960
2023-04-27T07:48:58.751Z,86.8154
2023-04-27T07:49:59.261Z,86.8452
2023-04-27T07:50:59.922Z,86.4943
2023-04-27T07:52:00.387Z,86.1241
2023-04-27T07:53:01.058Z,86.4563
2023-04-27T07:54:01.887Z,86.8850
2023-04-27T07:55:02.753Z,85.8997
2023-04-27T07:56:03.551Z,84.3928
2023-04-27T07:57:04.281Z,84.4399
2023-04-27T07:58:04.872Z,84.7031
2023-04-27T07:59:05.566Z,83.5706
2023-04-27T08:00:06.714Z,83.6680
2023-04-27T08:01:07.538Z,83.2620
2023-04-27T08:02:19.697Z,83.7667
2023-04-27T08:03:12.509Z,83.3259
2023-04-27T08:04:12.646Z,84.2514
2023-04-27T08:05:12.925Z,83.5398
2023-04-27T08:06:13.201Z,83.0797
2023-04-27T08:07:14.072Z,83.0004
2023-04-27T08:08:14.899Z,83.0085
2023-04-27T08:09:14.758Z,82.1311
2023-04-27T08:10:14.534Z,81.9742
2023-04-27T08:11:15.199Z,83.5299
2023-04-27T08:12:16.105Z,84.4846
2023-04-27T08:13:16.665Z,82.1328
2023-04-27T08:14:17.169Z,82.7231
2023-04-27T08:15:18.247Z,84.2362
2023-04-27T08:16:18.930Z,86.5345
2023-04-27T08:17:20.124Z,86.6121
2023-04-27T08:18:21.176Z,87.6752
2023-04-27T08:19:22.066Z,88.3282
2023-04-27T08:20:22.844Z,87.7322
2023-04-27T08:21:23.528Z,88.6517
2023-04-27T08:22:24.190Z,88.5984
2023-04-27T08:23:24.998Z,88.5241
2023-04-27T08:24:25.657Z,87.5363
2023-04-27T08:25:26.373Z,85.5703
2023-04-27T08:26:28.543Z,83.9912
2023-04-27T08:27:29.255Z,83.8776
2023-04-27T08:28:29.988Z,83.0215
2023-04-27T08:29:30.969Z,83.0882
2023-04-27T08:30:31.718Z,81.8256
2023-04-27T08:31:32.474Z,81.2496
2023-04-27T08:32:33.884Z,80.7393
2023-04-27T08:33:34.736Z,80.1980
2023-04-27T08:34:35.240Z,80.2770
2023-04-27T08:35:35.981Z,81.6059
2023-04-27T08:36:36.548Z,83.4184
2023-04-27T08:37:37.273Z,82.6216
2023-04-27T08:38:37.944Z,81.5136
2023-04-27T08:39:38.941Z,80.7166
2023-04-27T08:40:39.655Z,80.9005
2023-04-27T08:41:40.311Z,80.9357
2023-04-27T08:42:41.035Z,81.1734
2023-04-27T08:43:41.858Z,80.0935
2023-04-27T08:44:42.955Z,81.3954
2023-04-27T08:45:43.499Z,82.8215
2023-04-27T08:46:44.719Z,80.1650
2023-04-27T08:47:46.159Z,80.2304
2023-04-27T08:48:47.004Z,80.6206
2023-04-27T08:49:47.207Z,81.6793
2023-04-27T08:50:47.447Z,82.2189
2023-04-27T08:51:48.181Z,81.3286
2023-04-27T08:52:48.930Z,81.1039
2023-04-27T08:53:49.546Z,81.9343
2023-04-27T08:54:50.255Z,81.8611
2023-04-27T08:55:51.065Z,81.4555
2023-04-27T08:56:51.650Z,81.4482
2023-04-27T08:57:52.356Z,80.3198
2023-04-27T08:58:52.824Z,80.2038
2023-04-27T08:59:53.480Z,80.9453
2023-04-27T09:00:54.443Z,80.3345
2023-04-27T09:01:55.520Z,79.1110
2023-04-27T09:02:56.000Z,78.7490
2023-04-27T09:03:56.280Z,79.8708
2023-04-27T09:04:57.316Z,78.5509
2023-04-27T09:06:06.005Z,78.5700
2023-04-27T09:07:04.486Z,78.3412
2023-04-27T09:08:05.144Z,78.9677
2023-04-27T09:09:05.886Z,76.6547
2023-04-27T09:10:07.164Z,75.7443
2023-04-27T09:11:07.742Z,76.5703
2023-04-27T09:12:08.365Z,78.6117
2023-04-27T09:13:08.893Z,78.4893
2023-04-27T09:14:09.554Z,78.3907
2023-04-27T09:15:10.264Z,78.8910
2023-04-27T09:16:11.029Z,78.4809
2023-04-27T09:17:11.086Z,77.9347
2023-04-27T09:18:11.919Z,77.0659
2023-04-27T09:19:12.890Z,75.6706
2023-04-27T09:20:13.692Z,75.1087
2023-04-27T09:21:14.796Z,73.0901
2023-04-27T09:22:15.159Z,71.3092
2023-04-27T09:23:15.884Z,71.2467
2023-04-27T09:24:16.615Z,70.3971
2023-04-27T09:25:17.089Z,71.3761
2023-04-27T09:26:17.853Z,71.5073
2023-04-27T09:27:18.696Z,71.4319
2023-04-27T09:28:19.541Z,71.0789
2023-04-27T09:29:20.220Z,71.1485
2023-04-27T09:30:21.044Z,70.3699
2023-04-27T09:31:21.835Z,70.6839
2023-04-27T09:32:23.006Z,71.3849
2023-04-27T09:33:23.858Z,70.8123
2023-04-27T09:34:24.838Z,70.6195
2023-04-27T09:35:25.506Z,70.7878
2023-04-27T09:36:26.004Z,71.0621
2023-04-27T09:37:26.689Z,71.2653
2023-04-27T09:38:26.776Z,71.9424
2023-04-27T09:39:27.477Z,71.4925
2023-04-27T09:40:28.160Z,70.9298
2023-04-27T09:41:28.638Z,70.7663
2023-04-27T09:42:29.313Z,70.2686
2023-04-27T09:43:30.121Z,71.7019
2023-04-27T09:44:30.855Z,72.2225
2023-04-27T09:45:31.609Z,68.5384
2023-04-27T09:46:32.611Z,66.5101
2023-04-27T09:47:33.283Z,68.2811
2023-04-27T09:48:34.112Z,71.7714
2023-04-27T09:49:35.241Z,70.3107
2023-04-27T09:50:37.899Z,70.6511
2023-04-27T09:51:36.417Z,68.8984
2023-04-27T09:52:37.154Z,69.5342
2023-04-27T09:53:37.918Z,67.5893
2023-04-27T09:54:38.562Z,68.0151
2023-04-27T09:55:39.087Z,66.5728
2023-04-27T09:56:39.748Z,65.7328
2023-04-27T09:57:40.222Z,65.8697
2023-04-27T09:58:40.919Z,63.8563
2023-04-27T09:59:41.794Z,63.4638
2023-04-27T10:00:42.311Z,63.8804
2023-04-27T10:01:43.528Z,65.2859
2023-04-27T10:02:53.051Z,68.2647
2023-04-27T10:03:48.640Z,67.5357
2023-04-27T10:04:49.067Z,66.9482
2023-04-27T10:05:50.000Z,66.5398
2023-04-27T10:06:50.621Z,66.6023
2023-04-27T10:07:51.341Z,64.5174
2023-04-27T10:08:51.858Z,62.9109
2023-04-27T10:09:52.038Z,61.7754
2023-04-27T10:10:53.148Z,62.7836
2023-04-27T10:11:53.636Z,62.3056
2023-04-27T10:12:54.394Z,63.1338
2023-04-27T10:13:55.117Z,58.5876
2023-04-27T10:14:56.095Z,60.4230
2023-04-27T10:15:56.827Z,60.0391
2023-04-27T10:16:58.413Z,61.2642
2023-04-27T10:17:59.340Z,60.6317
2023-04-27T10:19:00.511Z,64.7816
2023-04-27T10:20:01.392Z,61.3112
2023-04-27T10:21:02.037Z,59.2701
2023-04-27T10:22:02.779Z,60.6952
2023-04-27T10:23:03.410Z,59.6116
2023-04-27T10:24:04.077Z,59.1288
2023-04-27T10:25:04.732Z,60.8074
2023-04-27T10:26:05.285Z,59.9936
2023-04-27T10:27:05.898Z,58.7986
2023-04-27T10:28:06.573Z,59.1475
2023-04-27T10:29:07.132Z,60.3018
2023-04-27T10:30:07.992Z,60.9290
2023-04-27T10:31:08.604Z,61.6077
2023-04-27T10:32:09.395Z,60.2822
2023-04-27T10:33:09.627Z,60.1871
2023-04-27T10:34:10.244Z,59.3553
2023-04-27T10:35:10.928Z,57.5043
2023-04-27T10:36:11.448Z,57.1621
2023-04-27T10:37:12.155Z,56.1656
2023-04-27T10:38:12.749Z,57.6991
2023-04-27T10:39:13.355Z,58.4956
2023-04-27T10:40:28.572Z,56.6421
2023-04-27T10:41:29.267Z,57.1081
2023-04-27T10:42:29.813Z,60.4042
2023-04-27T10:43:30.444Z,57.5454
2023-04-27T10:44:31.263Z,56.1502
2023-04-27T10:45:32.102Z,55.1451
2023-04-27T10:46:31.946Z,54.5143
2023-04-27T10:47:32.498Z,54.9146
2023-04-27T10:48:33.759Z,55.3847
2023-04-27T10:49:34.424Z,55.5281
2023-04-27T10:50:34.935Z,55.2903
2023-04-27T10:51:35.603Z,55.5175
2023-04-27T10:52:36.264Z,57.0419
2023-04-27T10:53:36.830Z,56.7563
2023-04-27T10:54:37.575Z,55.1082
2023-04-27T10:55:38.087Z,55.4245
2023-04-27T10:56:38.762Z,56.5220
2023-04-27T10:57:39.547Z,57.2544
2023-04-27T10:58:48.907Z,56.3905
2023-04-27T10:59:41.243Z,55.6909
2023-04-27T11:00:41.899Z,55.6616
2023-04-27T11:01:42.618Z,57.6615
2023-04-27T11:02:43.820Z,55.5113
2023-04-27T11:03:45.857Z,54.6006
2023-04-27T11:04:45.872Z,55.1727
2023-04-27T11:05:46.713Z,54.5665
2023-04-27T11:06:47.244Z,54.4929
2023-04-27T11:07:47.894Z,54.8241
2023-04-27T11:08:48.511Z,54.5439
2023-04-27T11:09:48.962Z,54.5331
2023-04-27T11:10:49.715Z,55.2605
2023-04-27T11:11:50.697Z,56.0732
2023-04-27T11:12:51.197Z,55.6590
2023-04-27T11:13:51.907Z,55.7947
2023-04-27T11:14:52.479Z,54.8119
2023-04-27T11:15:53.549Z,55.3092
2023-04-27T11:16:54.700Z,54.8608
2023-04-27T11:17:55.479Z,54.3709
2023-04-27T11:18:57.907Z,54.4098
2023-04-27T11:19:57.549Z,54.7434
2023-04-27T11:20:58.501Z,54.9463
2023-04-27T11:21:59.291Z,54.5057
2023-04-27T11:22:59.914Z,55.2777
2023-04-27T11:24:00.487Z,56.4987
2023-04-27T11:25:01.534Z,56.7399
2023-04-27T11:26:01.960Z,57.8898
2023-04-27T11:27:02.518Z,57.2916
2023-04-27T11:28:03.206Z,55.4958
2023-04-27T11:29:03.641Z,55.4376
2023-04-27T11:30:03.658Z,55.4493
2023-04-27T11:31:04.315Z,56.4112
2023-04-27T11:32:05.113Z,56.0059
2023-04-27T11:33:06.071Z,55.9037
2023-04-27T11:34:07.924Z,57.1823
2023-04-27T11:35:07.493Z,57.3424
2023-04-27T11:36:08.128Z,56.0992
2023-04-27T11:38:09.488Z,54.9440
2023-04-27T11:39:10.466Z,55.1351
2023-04-27T11:40:11.190Z,54.6252
2023-04-27T11:41:11.879Z,50.0969
2023-04-27T11:42:12.555Z,49.1900
2023-04-27T11:43:13.127Z,48.9782
2023-04-27T11:44:13.812Z,48.6389
2023-04-27T11:45:14.398Z,48.5020
2023-04-27T11:46:15.043Z,47.7625
2023-04-27T11:47:17.524Z,45.7389
2023-04-27T11:48:16.880Z,43.6868
2023-04-27T11:49:18.075Z,42.4946
2023-04-27T11:50:18.864Z,41.0505
2023-04-27T11:51:19.428Z,41.3668
2023-04-27T11:52:20.060Z,41.0446
2023-04-27T11:53:20.807Z,41.9443
2023-04-27T11:54:21.817Z,42.6318
2023-04-27T11:55:22.460Z,42.9696
2023-04-27T11:56:23.232Z,44.4061
2023-04-27T11:57:23.650Z,44.8401
2023-04-27T11:58:24.327Z,44.8205
2023-04-27T11:59:25.239Z,44.8638
2023-04-27T12:00:26.017Z,44.3172
2023-04-27T12:01:36.923Z,44.4616
2023-04-27T12:02:27.962Z,43.4435
2023-04-27T12:03:27.848Z,41.8543
2023-04-27T12:04:29.877Z,42.7692
2023-04-27T12:05:30.161Z,42.8862
2023-04-27T12:06:34.688Z,43.8260
2023-04-27T12:07:35.671Z,44.9039
2023-04-27T12:08:36.446Z,45.8126
2023-04-27T12:09:37.562Z,45.2909
2023-04-27T12:10:38.341Z,45.0521
2023-04-27T12:11:38.946Z,42.0004
2023-04-27T12:12:39.593Z,42.2199
2023-04-27T12:13:40.325Z,42.9925
2023-04-27T12:14:41.120Z,45.4788
2023-04-27T12:15:42.197Z,45.2219
2023-04-27T12:16:43.155Z,43.1811
2023-04-27T12:17:44.291Z,43.8664
2023-04-27T12:18:45.229Z,45.0042
2023-04-27T12:19:45.777Z,41.5884
2023-04-27T12:20:46.532Z,42.2047
2023-04-27T12:21:46.892Z,41.8854
2023-04-27T12:22:47.380Z,40.3658
2023-04-27T12:23:48.051Z,42.0218
2023-04-27T12:24:49.097Z,41.7041
2023-04-27T12:25:49.883Z,41.1407
2023-04-27T12:26:50.524Z,41.0361
2023-04-27T12:27:51.010Z,42.4006
2023-04-27T12:28:51.714Z,44.6395
2023-04-27T12:29:52.214Z,42.4439
2023-04-27T12:30:52.968Z,41.3469
2023-04-27T12:31:54.009Z,38.6669
2023-04-27T12:32:54.596Z,38.9118
2023-04-27T12:33:55.556Z,39.2630
2023-04-27T12:34:56.347Z,39.0800
2023-04-27T12:35:56.862Z,37.9541
2023-04-27T12:36:57.621Z,37.6987
2023-04-27T12:37:58.416Z,38.9542
2023-04-27T12:38:59.046Z,40.1111
2023-04-27T12:39:59.813Z,40.4606
2023-04-27T12:41:00.906Z,38.0349
2023-04-27T12:42:01.541Z,37.1087
2023-04-27T12:43:03.152Z,37.0582
2023-04-27T12:44:03.984Z,37.6089
2023-04-27T12:45:04.273Z,38.0826
2023-04-27T12:46:05.093Z,37.2190
2023-04-27T12:47:05.749Z,36.1101
2023-04-27T12:48:06.457Z,35.1872
2023-04-27T12:49:07.169Z,33.7847
2023-04-27T12:50:07.789Z,33.3080
2023-04-27T12:51:08.396Z,35.2785
2023-04-27T12:52:08.951Z,38.9405
2023-04-27T12:53:09.542Z,36.6293
2023-04-27T12:54:11.281Z,33.9827